createdAt,value
2023-03-13T00:02:29.642Z,101261.41
2023-03-13T00:05:00.221Z,101264.38
2023-03-13T00:07:30.382Z,101266.69
2023-03-13T00:10:00.368Z,101270.03
2023-03-13T00:12:30.977Z,101272.72
2023-03-13T00:15:01.014Z,101273.38
2023-03-13T00:17:31.563Z,101286.84
2023-03-13T00:20:01.611Z,101271.28
2023-03-13T00:22:31.750Z,101279.22
2023-03-13T00:25:01.763Z,101282.09
2023-03-13T00:27:34.670Z,101276.50
2023-03-13T00:30:04.881Z,101276.50
2023-03-13T00:32:35.173Z,101273.59
2023-03-13T00:35:05.422Z,101274.25
2023-03-13T00:37:35.943Z,101272.59
2023-03-13T00:40:07.088Z,101280.47
2023-03-13T00:42:37.749Z,101208.72
2023-03-13T00:45:08.043Z,101286.47
2023-03-13T00:47:38.058Z,101293.53
2023-03-13T00:50:08.558Z,101292.47
2023-03-13T00:52:39.106Z,101294.19
2023-03-13T00:55:09.474Z,101295.00
2023-03-13T00:57:39.961Z,101301.22
2023-03-13T01:00:10.420Z,101291.09
2023-03-13T01:02:43.845Z,101283.81
2023-03-13T01:05:14.728Z,101286.72
2023-03-13T01:07:45.296Z,101289.88
2023-03-13T01:10:15.369Z,101280.94
2023-03-13T01:12:45.504Z,101278.88
2023-03-13T01:15:16.088Z,101283.25
2023-03-13T01:17:46.204Z,101284.25
2023-03-13T01:20:16.269Z,101293.84
2023-03-13T01:22:46.798Z,101290.97
2023-03-13T01:25:17.014Z,101293.44
2023-03-13T01:27:46.974Z,101294.31
2023-03-13T01:30:17.142Z,101290.56
2023-03-13T01:32:47.370Z,101297.63
2023-03-13T01:35:19.794Z,101293.94
2023-03-13T01:37:49.833Z,101297.25
2023-03-13T01:40:19.986Z,101298.97
2023-03-13T01:42:53.627Z,101291.50
2023-03-13T01:45:43.149Z,101303.13
2023-03-13T01:48:13.317Z,101304.63
2023-03-13T01:50:52.742Z,101295.47
2023-03-13T01:53:29.643Z,101301.53
2023-03-13T01:56:01.770Z,101300.47
2023-03-13T01:58:32.548Z,101303.81
2023-03-13T02:01:03.209Z,101309.88
2023-03-13T02:03:33.707Z,101309.66
2023-03-13T02:06:04.410Z,101307.59
2023-03-13T02:08:36.825Z,101304.69
2023-03-13T02:11:15.643Z,101305.34
2023-03-13T02:13:45.989Z,101307.03
2023-03-13T02:16:16.202Z,101304.94
2023-03-13T02:18:51.562Z,101297.50
2023-03-13T02:21:38.716Z,101297.09
2023-03-13T02:24:30.816Z,101295.06
2023-03-13T02:27:01.012Z,101297.53
2023-03-13T02:29:31.244Z,101303.41
2023-03-13T02:32:01.726Z,101301.31
2023-03-13T02:34:34.228Z,101307.38
2023-03-13T02:37:07.400Z,101302.63
2023-03-13T02:39:39.436Z,101296.00
2023-03-13T02:42:09.970Z,101289.34
2023-03-13T02:44:42.167Z,101303.47
2023-03-13T02:47:13.008Z,101300.41
2023-03-13T02:49:44.196Z,101295.63
2023-03-13T02:52:14.308Z,101300.84
2023-03-13T02:54:47.861Z,101304.00
2023-03-13T02:57:18.295Z,101297.56
2023-03-13T02:59:48.733Z,101298.84
2023-03-13T03:02:19.898Z,101288.69
2023-03-13T03:04:49.993Z,101283.91
2023-03-13T03:07:20.152Z,101276.44
2023-03-13T03:09:50.672Z,101278.72
2023-03-13T03:12:23.030Z,101276.69
2023-03-13T03:14:53.212Z,101281.69
2023-03-13T03:17:23.941Z,101269.63
2023-03-13T03:19:54.360Z,101268.41
2023-03-13T03:22:24.656Z,101263.66
2023-03-13T03:24:55.166Z,101273.00
2023-03-13T03:27:27.283Z,101270.94
2023-03-13T03:29:57.724Z,101263.47
2023-03-13T03:32:27.982Z,101260.56
2023-03-13T03:34:58.215Z,101252.03
2023-03-13T03:37:28.387Z,101237.28
2023-03-13T03:39:58.596Z,101232.53
2023-03-13T03:42:30.636Z,101233.16
2023-03-13T03:45:01.361Z,101232.75
2023-03-13T03:47:31.656Z,101222.38
2023-03-13T03:50:05.216Z,101223.00
2023-03-13T03:52:43.473Z,101221.75
2023-03-13T03:55:14.176Z,101211.59
2023-03-13T03:57:44.445Z,101213.06
2023-03-13T04:00:23.595Z,101203.69
2023-03-13T04:03:00.103Z,101197.06
2023-03-13T04:05:30.700Z,101196.66
2023-03-13T04:08:01.442Z,101193.75
2023-03-13T04:10:31.731Z,101177.09
2023-03-13T04:13:02.232Z,101176.69
2023-03-13T04:15:32.321Z,101166.50
2023-03-13T04:18:02.685Z,101168.81
2023-03-13T04:20:33.434Z,101155.91
2023-03-13T04:23:03.992Z,101151.75
2023-03-13T04:25:34.256Z,101149.66
2023-03-13T04:28:06.114Z,101142.19
2023-03-13T04:30:42.857Z,101130.09
2023-03-13T04:33:33.088Z,101130.53
2023-03-13T04:36:24.323Z,101123.00
2023-03-13T04:39:26.896Z,101119.91
2023-03-13T04:42:15.680Z,101118.66
2023-03-13T04:45:09.668Z,101099.50
2023-03-13T04:48:02.618Z,101105.53
2023-03-13T04:50:49.743Z,101091.59
2023-03-13T04:53:42.584Z,101092.22
2023-03-13T04:56:41.517Z,101084.72
2023-03-13T04:59:30.974Z,101077.25
2023-03-13T05:02:20.125Z,101070.78
2023-03-13T05:05:10.567Z,101072.22
2023-03-13T05:07:58.650Z,101063.09
2023-03-13T05:10:34.647Z,101059.13
2023-03-13T05:13:30.682Z,101055.16
2023-03-13T05:16:07.406Z,101041.41
2023-03-13T05:18:50.555Z,101040.78
2023-03-13T05:21:28.197Z,101029.72
2023-03-13T05:24:24.465Z,101023.06
2023-03-13T05:27:19.783Z,101019.09
2023-03-13T05:30:21.871Z,101011.59
2023-03-13T05:33:07.107Z,100987.84
2023-03-13T05:36:09.669Z,100990.72
2023-03-13T05:39:05.851Z,100977.81
2023-03-13T05:41:51.013Z,100974.66
2023-03-13T05:44:41.798Z,100975.28
2023-03-13T05:47:45.087Z,100971.31
2023-03-13T05:50:43.653Z,100963.59
2023-03-13T05:53:33.449Z,100957.72
2023-03-13T05:56:20.782Z,100949.16
2023-03-13T05:59:13.917Z,100947.91
2023-03-13T06:02:00.520Z,100936.91
2023-03-13T06:04:37.420Z,100935.41
2023-03-13T06:07:07.824Z,100919.75
2023-03-13T06:09:38.529Z,100930.16
2023-03-13T06:12:12.796Z,100906.19
2023-03-13T06:14:43.214Z,100911.16
2023-03-13T06:17:36.261Z,100904.47
2023-03-13T06:20:07.384Z,100892.34
2023-03-13T06:22:37.674Z,100888.38
2023-03-13T06:25:08.380Z,100868.97
2023-03-13T06:27:38.675Z,100881.25
2023-03-13T06:30:11.187Z,100876.22
2023-03-13T06:32:41.407Z,100874.72
2023-03-13T06:35:11.672Z,100869.66
2023-03-13T06:37:41.832Z,100870.06
2023-03-13T06:40:13.107Z,100868.81
2023-03-13T06:42:43.180Z,100867.53
2023-03-13T06:45:13.350Z,100856.25
2023-03-13T06:47:43.543Z,100844.13
2023-03-13T06:50:13.814Z,100837.44
2023-03-13T06:52:44.601Z,100827.81
2023-03-13T06:55:15.452Z,100821.94
2023-03-13T06:57:45.615Z,100816.88
2023-03-13T07:00:16.434Z,100817.28
2023-03-13T07:02:46.754Z,100806.81
2023-03-13T07:05:16.922Z,100812.59
2023-03-13T07:07:47.489Z,100808.84
2023-03-13T07:10:17.602Z,100809.22
2023-03-13T07:12:47.771Z,100803.31
2023-03-13T07:15:17.969Z,100789.53
2023-03-13T07:17:48.078Z,100792.38
2023-03-13T07:20:18.249Z,100785.69
2023-03-13T07:22:52.801Z,100784.41
2023-03-13T07:25:23.010Z,100779.56
2023-03-13T07:27:54.543Z,100772.63
2023-03-13T07:30:24.623Z,100771.34
2023-03-13T07:32:55.048Z,100761.91
2023-03-13T07:35:25.101Z,100764.19
2023-03-13T07:37:55.272Z,100755.38
2023-03-13T07:40:25.341Z,100759.28
2023-03-13T07:42:55.610Z,100749.84
2023-03-13T07:45:25.608Z,100741.84
2023-03-13T07:47:55.684Z,100742.19
2023-03-13T07:50:25.808Z,100751.28
2023-03-13T07:52:56.166Z,100743.53
2023-03-13T07:55:26.204Z,100741.19
2023-03-13T07:57:56.298Z,100681.59
2023-03-13T08:00:26.797Z,100733.16
2023-03-13T08:02:57.181Z,100728.91
2023-03-13T08:05:27.230Z,100723.00
2023-03-13T08:07:57.902Z,100713.34
2023-03-13T08:10:28.019Z,100720.84
2023-03-13T08:13:01.122Z,100718.22
2023-03-13T08:15:31.323Z,100720.69
2023-03-13T08:18:01.437Z,100711.00
2023-03-13T08:20:31.587Z,100716.00
2023-03-13T08:23:01.983Z,100714.44
2023-03-13T08:25:32.081Z,100710.78
2023-03-13T08:28:02.602Z,100708.19
2023-03-13T08:30:32.820Z,100706.66
2023-03-13T08:33:03.048Z,100703.47
2023-03-13T08:35:33.537Z,100707.34
2023-03-13T08:38:15.766Z,100713.97
2023-03-13T08:40:46.034Z,100717.84
2023-03-13T08:43:16.696Z,100724.44
2023-03-13T08:45:46.719Z,100722.72
2023-03-13T08:48:17.213Z,100730.41
2023-03-13T08:50:47.652Z,100725.31
2023-03-13T08:53:17.714Z,100729.19
2023-03-13T08:55:54.175Z,100737.44
2023-03-13T08:58:24.398Z,100743.22
2023-03-13T09:00:55.076Z,100737.06
2023-03-13T09:03:25.615Z,100733.88
2023-03-13T09:05:56.624Z,100735.06
2023-03-13T09:08:27.342Z,100741.91
2023-03-13T09:10:58.867Z,100741.66
2023-03-13T09:13:29.479Z,100743.31
2023-03-13T09:16:03.634Z,100746.59
2023-03-13T09:18:34.612Z,100751.56
2023-03-13T09:21:07.266Z,100746.97
2023-03-13T09:23:37.569Z,100752.75
2023-03-13T09:26:08.070Z,100758.78
2023-03-13T09:28:38.447Z,100751.22
2023-03-13T09:31:10.140Z,100750.16
2023-03-13T09:33:40.846Z,100764.31
2023-03-13T09:36:11.553Z,100767.91
2023-03-13T09:38:41.819Z,100758.88
2023-03-13T09:41:21.428Z,100773.91
2023-03-13T09:44:10.304Z,100766.81
2023-03-13T09:46:40.567Z,100779.34
2023-03-13T09:49:22.793Z,100778.50
2023-03-13T09:51:55.458Z,100782.31
2023-03-13T09:54:46.094Z,100776.88
2023-03-13T09:57:22.250Z,100788.56
2023-03-13T09:59:59.407Z,100781.72
2023-03-13T10:02:31.676Z,100791.53
2023-03-13T10:05:04.924Z,100789.88
2023-03-13T10:07:35.292Z,100794.25
2023-03-13T10:10:07.940Z,100794.50
2023-03-13T10:12:42.262Z,100804.16
2023-03-13T10:15:24.730Z,100812.78
2023-03-13T10:17:54.861Z,100816.16
2023-03-13T10:20:35.496Z,100821.44
2023-03-13T10:23:14.655Z,100822.84
2023-03-13T10:25:44.906Z,100813.84
2023-03-13T10:28:16.357Z,100814.63
2023-03-13T10:30:49.609Z,100817.44
2023-03-13T10:33:21.624Z,100822.38
2023-03-13T10:36:02.088Z,100824.53
2023-03-13T10:38:34.543Z,100826.72
2023-03-13T10:41:11.687Z,100831.97
2023-03-13T10:43:51.536Z,100831.91
2023-03-13T10:46:28.266Z,100843.38
2023-03-13T10:48:59.277Z,100839.00
2023-03-13T10:51:37.145Z,100840.84
2023-03-13T10:54:17.202Z,100844.50
2023-03-13T10:56:47.382Z,100850.84
2023-03-13T10:59:24.946Z,100851.31
2023-03-13T11:02:00.285Z,100850.69
2023-03-13T11:04:35.051Z,100864.72
2023-03-13T11:07:16.811Z,100861.41
2023-03-13T11:09:54.367Z,100863.53
2023-03-13T11:12:24.523Z,100864.31
2023-03-13T11:15:01.809Z,100874.53
2023-03-13T11:17:42.210Z,100872.91
2023-03-13T11:20:21.323Z,100877.22
2023-03-13T11:22:58.079Z,100881.50
2023-03-13T11:25:41.192Z,100881.03
2023-03-13T11:28:14.431Z,100889.78
2023-03-13T11:30:47.433Z,100889.56
2023-03-13T11:33:32.022Z,100885.75
2023-03-13T11:36:04.506Z,100891.19
2023-03-13T11:38:39.019Z,100900.19
2023-03-13T11:41:18.430Z,100901.00
2023-03-13T11:44:11.694Z,100895.81
2023-03-13T11:47:00.434Z,100907.28
2023-03-13T11:49:30.515Z,100916.50
2023-03-13T11:52:06.382Z,100920.25
2023-03-13T11:54:39.732Z,100911.53
2023-03-13T11:57:15.891Z,100919.66
2023-03-13T11:59:57.540Z,100914.47
2023-03-13T12:02:37.413Z,100919.53
2023-03-13T12:05:12.753Z,100919.75
2023-03-13T12:07:53.182Z,100918.31
2023-03-13T12:10:27.444Z,100932.16
2023-03-13T12:13:09.849Z,100922.56
2023-03-13T12:15:42.315Z,100935.50
2023-03-13T12:18:18.306Z,100938.69
2023-03-13T12:20:57.704Z,100939.75
2023-03-13T12:23:46.018Z,100946.22
2023-03-13T12:26:18.104Z,100941.56
2023-03-13T12:28:57.800Z,100948.53
2023-03-13T12:31:36.243Z,100961.19
2023-03-13T12:34:15.384Z,100952.31
2023-03-13T12:36:45.522Z,100957.28
2023-03-13T12:39:33.929Z,100956.81
2023-03-13T12:42:10.359Z,100956.81
2023-03-13T12:44:41.224Z,100963.06
2023-03-13T12:47:17.930Z,100965.78
2023-03-13T12:49:54.115Z,100971.44
2023-03-13T12:52:42.411Z,100975.19
2023-03-13T12:55:12.561Z,100978.97
2023-03-13T12:57:51.967Z,100971.88
2023-03-13T13:00:24.104Z,100975.66
2023-03-13T13:03:12.818Z,100984.88
2023-03-13T13:05:59.524Z,100990.28
2023-03-13T13:08:33.745Z,100990.50
2023-03-13T13:11:24.342Z,100988.63
2023-03-13T13:13:54.619Z,100988.63
2023-03-13T13:16:25.414Z,101001.97
2023-03-13T13:18:56.064Z,101005.75
2023-03-13T13:21:28.203Z,101008.88
2023-03-13T13:24:18.144Z,101008.06
2023-03-13T13:26:50.341Z,101019.97
2023-03-13T13:29:20.941Z,101007.91
2023-03-13T13:31:56.543Z,101006.06
2023-03-13T13:34:33.583Z,101006.47
2023-03-13T13:37:09.312Z,101010.53
2023-03-13T13:39:45.108Z,101003.38
2023-03-13T13:42:34.007Z,101006.28
2023-03-13T13:45:04.177Z,101012.47
2023-03-13T13:47:34.413Z,101013.78
2023-03-13T13:50:04.471Z,101019.66
2023-03-13T13:52:41.161Z,101018.84
2023-03-13T13:55:29.381Z,101026.81
2023-03-13T13:58:05.811Z,101036.81
2023-03-13T14:00:47.607Z,101036.66
2023-03-13T14:03:25.163Z,101036.03
2023-03-13T14:06:04.283Z,101031.47
2023-03-13T14:08:43.292Z,101036.28
2023-03-13T14:11:16.127Z,101046.25
2023-03-13T14:13:46.435Z,101048.97
2023-03-13T14:16:25.930Z,101038.16
2023-03-13T14:18:56.258Z,101043.59
2023-03-13T14:21:28.677Z,101046.47
2023-03-13T14:23:59.259Z,101053.31
2023-03-13T14:26:31.771Z,101051.22
2023-03-13T14:29:08.129Z,101050.19
2023-03-13T14:31:40.219Z,101054.34
2023-03-13T14:34:19.240Z,101066.81
2023-03-13T14:36:52.765Z,101059.72
2023-03-13T14:39:43.053Z,101055.78
2023-03-13T14:42:17.459Z,101063.03
2023-03-13T14:44:50.687Z,101059.69
2023-03-13T14:47:33.170Z,101062.78
2023-03-13T14:50:05.888Z,101060.91
2023-03-13T14:52:36.326Z,101057.97
2023-03-13T14:55:09.299Z,101065.84
2023-03-13T14:57:55.725Z,101062.94
2023-03-13T15:00:28.885Z,101061.47
2023-03-13T15:03:22.727Z,101067.09
2023-03-13T15:06:16.061Z,101059.81
2023-03-13T15:08:47.726Z,101072.91
2023-03-13T15:11:31.360Z,101079.97
2023-03-13T15:14:02.308Z,101066.47
2023-03-13T15:16:32.480Z,101069.56
2023-03-13T15:19:02.568Z,101067.72
2023-03-13T15:21:34.936Z,101068.34
2023-03-13T15:24:13.055Z,101066.25
2023-03-13T15:26:43.646Z,101070.41
2023-03-13T15:29:13.861Z,101070.16
2023-03-13T15:31:44.038Z,101070.56
2023-03-13T15:34:15.665Z,101068.69
2023-03-13T15:36:46.028Z,101076.13
2023-03-13T15:39:20.949Z,101079.03
2023-03-13T15:41:51.005Z,101084.66
2023-03-13T15:44:21.510Z,101086.91
2023-03-13T15:46:51.627Z,101093.16
2023-03-13T15:49:21.659Z,101094.16
2023-03-13T15:51:52.258Z,101087.50
2023-03-13T15:54:22.727Z,101093.09
2023-03-13T15:56:54.256Z,101096.84
2023-03-13T15:59:24.277Z,101091.66
2023-03-13T16:01:54.354Z,101086.03
2023-03-13T16:04:24.554Z,101093.88
2023-03-13T16:06:54.685Z,101092.56
2023-03-13T16:09:24.808Z,101095.25
2023-03-13T16:11:55.068Z,101095.09
2023-03-13T16:14:25.207Z,101087.16
2023-03-13T16:16:55.423Z,101096.28
2023-03-13T16:19:25.747Z,101089.66
2023-03-13T16:21:55.789Z,101084.25
2023-03-13T16:24:25.963Z,101081.91
2023-03-13T16:26:56.154Z,101089.19
2023-03-13T16:29:27.160Z,101088.34
2023-03-13T16:31:57.325Z,101087.09
2023-03-13T16:34:27.459Z,101085.00
2023-03-13T16:36:58.640Z,101072.09
2023-03-13T16:39:29.115Z,101066.06
2023-03-13T16:41:59.601Z,101065.06
2023-03-13T16:44:29.795Z,101074.19
2023-03-13T16:47:05.973Z,101072.31
2023-03-13T16:49:36.455Z,101071.50
2023-03-13T16:52:06.505Z,101076.31
2023-03-13T16:54:36.617Z,101076.31
2023-03-13T16:57:21.538Z,101065.53
2023-03-13T16:59:52.094Z,101064.06
2023-03-13T17:02:22.731Z,101058.91
2023-03-13T17:04:53.179Z,101056.38
2023-03-13T17:07:24.941Z,101047.25
2023-03-13T17:09:55.221Z,101042.25
2023-03-13T17:12:25.320Z,101043.28
2023-03-13T17:14:55.355Z,101034.13
2023-03-13T17:17:25.505Z,101035.59
2023-03-13T17:19:56.529Z,101024.34
2023-03-13T17:22:26.900Z,101024.75
2023-03-13T17:24:56.982Z,101027.28
2023-03-13T17:27:27.007Z,101019.38
2023-03-13T17:29:57.058Z,101025.81
2023-03-13T17:32:27.255Z,101022.47
2023-03-13T17:34:57.366Z,101020.59
2023-03-13T17:37:28.107Z,101019.75
2023-03-13T17:39:58.123Z,101016.63
2023-03-13T17:42:28.632Z,101013.13
2023-03-13T17:44:58.656Z,101011.66
2023-03-13T17:47:28.990Z,101005.59
2023-03-13T17:49:59.130Z,101006.00
2023-03-13T17:52:29.292Z,101001.44
2023-03-13T17:54:59.398Z,100989.84
2023-03-13T17:57:29.941Z,100995.63
2023-03-13T18:00:00.074Z,100992.28
2023-03-13T18:02:30.282Z,101003.28
2023-03-13T18:05:00.394Z,100996.03
2023-03-13T18:07:30.843Z,100995.59
2023-03-13T18:10:00.916Z,100985.19
2023-03-13T18:12:31.943Z,100980.63
2023-03-13T18:15:01.976Z,100977.31
2023-03-13T18:17:32.063Z,100969.78
2023-03-13T18:20:02.132Z,100982.44
2023-03-13T18:22:32.409Z,100982.81
2023-03-13T18:25:02.556Z,100981.16
2023-03-13T18:27:32.826Z,100980.50
2023-03-13T18:30:02.854Z,100976.53
2023-03-13T18:32:32.952Z,100970.13
2023-03-13T18:35:03.288Z,100970.53
2023-03-13T18:37:34.589Z,100970.53
2023-03-13T18:40:08.922Z,100972.56
2023-03-13T18:42:38.914Z,100971.75
2023-03-13T18:45:09.279Z,100972.97
2023-03-13T18:47:39.289Z,100964.06
2023-03-13T18:50:19.816Z,100972.31
2023-03-13T18:52:49.966Z,100977.72
2023-03-13T18:55:20.210Z,100980.41
2023-03-13T18:57:50.540Z,100977.06
2023-03-13T19:00:25.815Z,100973.75
2023-03-13T19:02:55.928Z,100966.69
2023-03-13T19:05:26.011Z,100970.41
2023-03-13T19:07:56.171Z,100967.72
2023-03-13T19:10:30.579Z,100965.44
2023-03-13T19:13:00.684Z,100962.09
2023-03-13T19:15:32.458Z,100964.78
2023-03-13T19:18:03.752Z,100965.19
2023-03-13T19:20:34.270Z,100969.91
2023-03-13T19:23:04.726Z,100964.53
2023-03-13T19:25:36.020Z,100969.91
2023-03-13T19:28:07.542Z,100982.13
2023-03-13T19:30:38.149Z,100975.69
2023-03-13T19:33:08.124Z,100976.09
2023-03-13T19:35:38.329Z,100881.75
2023-03-13T19:38:11.542Z,100976.09
2023-03-13T19:40:41.540Z,100971.09
2023-03-13T19:43:11.602Z,100969.44
2023-03-13T19:45:41.758Z,100971.50
2023-03-13T19:48:12.263Z,100973.53
2023-03-13T19:50:42.322Z,100976.22
2023-03-13T19:53:12.362Z,100980.13
2023-03-13T19:55:42.404Z,100975.97
2023-03-13T19:58:14.322Z,100981.34
2023-03-13T20:00:44.931Z,100986.31
2023-03-13T20:03:14.902Z,100988.34
2023-03-13T20:05:46.077Z,100988.56
2023-03-13T20:08:16.167Z,100986.25
2023-03-13T20:10:46.192Z,100987.69
2023-03-13T20:13:16.208Z,100983.56
2023-03-13T20:15:46.287Z,100984.09
2023-03-13T20:18:16.359Z,100985.75
2023-03-13T20:20:46.394Z,100986.97
2023-03-13T20:23:16.388Z,100980.31
2023-03-13T20:25:47.043Z,100978.66
2023-03-13T20:28:17.190Z,100982.34
2023-03-13T20:30:49.861Z,100977.63
2023-03-13T20:33:19.966Z,100986.09
2023-03-13T20:35:50.119Z,100982.34
2023-03-13T20:38:20.251Z,100982.75
2023-03-13T20:40:53.573Z,100984.78
2023-03-13T20:43:23.797Z,100992.69
2023-03-13T20:45:54.080Z,100992.94
2023-03-13T20:48:24.356Z,100990.31
2023-03-13T20:50:55.432Z,100993.75
2023-03-13T20:53:26.295Z,100999.00
2023-03-13T20:55:56.288Z,101000.72
2023-03-13T20:58:26.596Z,100996.38
2023-03-13T21:00:59.673Z,100988.88
2023-03-13T21:03:30.227Z,101000.03
2023-03-13T21:06:00.556Z,100990.47
2023-03-13T21:08:30.579Z,100981.09
2023-03-13T21:11:00.624Z,100985.88
2023-03-13T21:13:30.804Z,100986.25
2023-03-13T21:16:01.951Z,100979.53
2023-03-13T21:18:32.043Z,100985.31
2023-03-13T21:21:09.891Z,100982.63
2023-03-13T21:23:40.267Z,100986.75
2023-03-13T21:26:10.566Z,100989.44
2023-03-13T21:28:41.465Z,100988.97
2023-03-13T21:31:11.629Z,100989.16
2023-03-13T21:33:42.599Z,100984.78
2023-03-13T21:36:13.435Z,100987.88
2023-03-13T21:38:44.017Z,100993.63
2023-03-13T21:41:18.293Z,100992.59
2023-03-13T21:43:48.711Z,100988.13
2023-03-13T21:46:19.492Z,100994.44
2023-03-13T21:48:49.750Z,100995.31
2023-03-13T21:51:19.764Z,101001.00
2023-03-13T21:53:49.859Z,101004.59
2023-03-13T21:56:20.271Z,101003.38
2023-03-13T21:58:50.398Z,101005.81
2023-03-13T22:01:20.769Z,101003.03
2023-03-13T22:03:50.916Z,100994.03
2023-03-13T22:06:22.343Z,100995.03
2023-03-13T22:08:53.161Z,101003.06
2023-03-13T22:11:23.160Z,101008.63
2023-03-13T22:13:54.144Z,101006.31
2023-03-13T22:16:26.776Z,101010.06
2023-03-13T22:18:57.063Z,101003.19
2023-03-13T22:21:27.320Z,101013.41
2023-03-13T22:23:57.414Z,101012.63
2023-03-13T22:26:27.512Z,101011.03
2023-03-13T22:28:57.505Z,101016.50
2023-03-13T22:31:27.899Z,101020.28
2023-03-13T22:33:58.071Z,101025.75
2023-03-13T22:36:28.318Z,101025.09
2023-03-13T22:38:58.356Z,101011.59
2023-03-13T22:41:28.690Z,101015.88
2023-03-13T22:43:59.338Z,101016.41
2023-03-13T22:46:29.606Z,101027.13
2023-03-13T22:49:00.148Z,101026.25
2023-03-13T22:51:30.229Z,101034.94
2023-03-13T22:54:00.503Z,101036.16
2023-03-13T22:56:31.067Z,101038.19
2023-03-13T22:59:01.237Z,101041.97
2023-03-13T23:01:31.278Z,101048.28
2023-03-13T23:04:01.350Z,101051.22
2023-03-13T23:06:31.486Z,101050.69
2023-03-13T23:09:01.643Z,101045.56
2023-03-13T23:11:32.237Z,101053.91
2023-03-13T23:14:02.352Z,101053.94
2023-03-13T23:16:33.118Z,101046.13
2023-03-13T23:19:03.543Z,101057.34
2023-03-13T23:21:33.577Z,101055.13
2023-03-13T23:24:03.819Z,101063.66
2023-03-13T23:26:33.800Z,101053.31
2023-03-13T23:29:03.874Z,101063.69
2023-03-13T23:31:35.185Z,101066.00
2023-03-13T23:34:05.412Z,101069.16
2023-03-13T23:36:35.983Z,101073.34
2023-03-13T23:39:06.177Z,101071.06
2023-03-13T23:41:36.186Z,101072.56
2023-03-13T23:44:06.243Z,101081.72
2023-03-13T23:46:36.464Z,101087.56
2023-03-13T23:49:06.860Z,101084.50
2023-03-13T23:51:36.937Z,101097.56
2023-03-13T23:54:06.963Z,101096.19
2023-03-13T23:56:36.947Z,101105.53
2023-03-13T23:59:07.058Z,101099.75
